createdAt,value
2023-04-23T00:00:26.914Z,13.60
2023-04-23T00:02:56.714Z,13.50
2023-04-23T00:05:29.068Z,13.50
2023-04-23T00:08:01.578Z,13.50
2023-04-23T00:10:29.817Z,13.50
2023-04-23T00:12:59.395Z,13.50
2023-04-23T00:15:28.232Z,13.50
2023-04-23T00:17:56.144Z,13.50
2023-04-23T00:20:24.180Z,13.50
2023-04-23T00:22:52.303Z,13.40
2023-04-23T00:25:21.940Z,13.40
2023-04-23T00:27:50.214Z,13.50
2023-04-23T00:30:18.860Z,13.50
2023-04-23T00:32:47.662Z,13.40
2023-04-23T00:35:15.622Z,13.40
2023-04-23T00:37:43.621Z,13.40
2023-04-23T00:40:12.385Z,13.40
2023-04-23T00:42:42.016Z,13.40
2023-04-23T00:45:10.484Z,13.40
2023-04-23T00:47:38.363Z,13.40
2023-04-23T00:50:08.112Z,13.40
2023-04-23T00:52:36.269Z,13.50
2023-04-23T00:55:04.267Z,13.50
2023-04-23T00:57:32.163Z,13.50
2023-04-23T01:00:01.847Z,13.50
2023-04-23T01:02:32.206Z,13.40
2023-04-23T01:05:02.575Z,13.50
2023-04-23T01:07:30.675Z,13.50
2023-04-23T01:09:58.986Z,13.50
2023-04-23T01:12:28.327Z,13.40
2023-04-23T01:14:56.715Z,13.40
2023-04-23T01:17:26.777Z,13.40
2023-04-23T01:19:54.946Z,13.40
2023-04-23T01:22:24.318Z,13.40
2023-04-23T01:24:52.698Z,13.40
2023-04-23T01:27:22.233Z,13.40
2023-04-23T01:29:50.840Z,13.40
2023-04-23T01:32:19.113Z,13.40
2023-04-23T01:34:48.445Z,13.40
2023-04-23T01:37:17.312Z,13.40
2023-04-23T01:39:46.614Z,13.40
2023-04-23T01:42:14.491Z,13.40
2023-04-23T01:44:42.646Z,13.40
2023-04-23T01:47:11.202Z,13.30
2023-04-23T01:49:39.308Z,13.20
2023-04-23T01:52:07.181Z,13.20
2023-04-23T01:54:35.082Z,13.30
2023-04-23T01:57:04.302Z,13.30
2023-04-23T01:59:32.149Z,13.30
2023-04-23T02:02:00.059Z,13.40
2023-04-23T02:04:28.791Z,13.30
2023-04-23T02:06:56.796Z,13.30
2023-04-23T02:09:24.716Z,13.20
2023-04-23T02:11:52.535Z,13.20
2023-04-23T02:14:21.754Z,13.20
2023-04-23T02:16:49.600Z,13.30
2023-04-23T02:19:17.804Z,13.30
2023-04-23T02:21:46.010Z,13.30
2023-04-23T02:24:14.120Z,13.30
2023-04-23T02:26:42.043Z,13.30
2023-04-23T02:29:10.089Z,13.20
2023-04-23T02:31:39.407Z,13.20
2023-04-23T02:34:07.370Z,13.30
2023-04-23T02:36:36.584Z,13.30
2023-04-23T02:39:04.867Z,13.30
2023-04-23T02:41:32.783Z,13.30
2023-04-23T02:44:00.891Z,13.20
2023-04-23T02:46:28.845Z,13.20
2023-04-23T02:48:58.234Z,13.20
2023-04-23T02:51:29.549Z,13.10
2023-04-23T02:53:57.994Z,13.10
2023-04-23T02:56:25.995Z,13.10
2023-04-23T02:58:53.879Z,13.10
2023-04-23T03:01:21.860Z,13.20
2023-04-23T03:03:50.069Z,13.20
2023-04-23T03:06:19.625Z,13.20
2023-04-23T03:08:47.505Z,13.20
2023-04-23T03:11:15.418Z,13.20
2023-04-23T03:13:43.426Z,13.20
2023-04-23T03:16:11.440Z,13.10
2023-04-23T03:18:39.410Z,13.10
2023-04-23T03:21:07.340Z,13.00
2023-04-23T03:23:37.545Z,13.00
2023-04-23T03:26:05.519Z,13.00
2023-04-23T03:28:33.718Z,12.90
2023-04-23T03:31:01.788Z,13.00
2023-04-23T03:33:29.728Z,12.90
2023-04-23T03:35:57.615Z,12.80
2023-04-23T03:38:25.934Z,12.80
2023-04-23T03:40:55.229Z,12.80
2023-04-23T03:43:23.097Z,12.70
2023-04-23T03:45:50.967Z,12.70
2023-04-23T03:48:18.851Z,12.70
2023-04-23T03:50:46.671Z,12.70
2023-04-23T03:53:14.584Z,12.60
2023-04-23T03:55:42.564Z,12.60
2023-04-23T03:58:11.857Z,12.60
2023-04-23T04:00:39.722Z,12.50
2023-04-23T04:03:08.920Z,12.50
2023-04-23T04:05:37.086Z,12.50
2023-04-23T04:08:05.634Z,12.50
2023-04-23T04:10:33.484Z,12.40
2023-04-23T04:13:01.568Z,12.40
2023-04-23T04:15:32.213Z,12.40
2023-04-23T04:18:01.126Z,12.30
2023-04-23T04:20:29.634Z,12.30
2023-04-23T04:22:57.481Z,12.30
2023-04-23T04:25:25.422Z,12.40
2023-04-23T04:27:53.268Z,12.50
2023-04-23T04:30:21.632Z,12.50
2023-04-23T04:32:50.920Z,12.40
2023-04-23T04:35:19.285Z,12.40
2023-04-23T04:37:47.297Z,12.30
2023-04-23T04:40:15.958Z,12.30
2023-04-23T04:42:43.806Z,12.20
2023-04-23T04:45:12.242Z,12.20
2023-04-23T04:47:40.216Z,12.20
2023-04-23T04:50:10.326Z,12.20
2023-04-23T04:52:38.246Z,12.20
2023-04-23T04:55:07.134Z,12.20
2023-04-23T04:57:35.066Z,12.20
2023-04-23T05:00:19.841Z,12.20
2023-04-23T05:02:48.921Z,12.20
2023-04-23T05:05:18.817Z,12.20
2023-04-23T05:07:46.797Z,12.20
2023-04-23T05:10:15.816Z,12.20
2023-04-23T05:12:44.173Z,12.20
2023-04-23T05:15:14.163Z,12.20
2023-04-23T05:17:42.775Z,12.20
2023-04-23T05:20:12.192Z,12.20
2023-04-23T05:22:42.353Z,12.20
2023-04-23T05:25:12.131Z,12.30
2023-04-23T05:27:40.658Z,12.20
2023-04-23T05:30:10.428Z,12.30
2023-04-23T05:32:38.826Z,12.30
2023-04-23T05:35:07.918Z,12.40
2023-04-23T05:37:35.955Z,12.40
2023-04-23T05:40:07.231Z,12.40
2023-04-23T05:42:36.713Z,12.50
2023-04-23T05:45:06.674Z,12.50
2023-04-23T05:47:36.424Z,12.50
2023-04-23T05:50:04.459Z,12.40
2023-04-23T05:52:33.490Z,12.50
2023-04-23T05:55:01.411Z,12.40
2023-04-23T05:57:30.651Z,12.30
2023-04-23T05:59:58.519Z,12.20
2023-04-23T06:02:26.631Z,12.30
2023-04-23T06:04:54.785Z,12.30
2023-04-23T06:07:22.922Z,12.30
2023-04-23T06:09:50.900Z,12.40
2023-04-23T06:12:19.475Z,12.60
2023-04-23T06:14:48.928Z,12.70
2023-04-23T06:17:16.884Z,12.70
2023-04-23T06:19:44.739Z,12.80
2023-04-23T06:22:12.608Z,12.80
2023-04-23T06:24:40.585Z,12.90
2023-04-23T06:27:08.648Z,13.00
2023-04-23T06:29:36.946Z,13.10
2023-04-23T06:32:06.366Z,13.10
2023-04-23T06:34:34.300Z,13.20
2023-04-23T06:37:02.365Z,13.30
2023-04-23T06:39:30.236Z,13.50
2023-04-23T06:41:58.238Z,13.50
2023-04-23T06:44:26.052Z,13.60
2023-04-23T06:46:53.944Z,13.60
2023-04-23T06:49:23.224Z,13.60
2023-04-23T06:51:51.048Z,13.70
2023-04-23T06:54:18.982Z,13.70
2023-04-23T06:56:46.802Z,13.80
2023-04-23T06:59:14.763Z,13.80
2023-04-23T07:01:43.432Z,13.90
2023-04-23T07:04:11.389Z,14.10
2023-04-23T07:06:40.725Z,14.10
2023-04-23T07:09:09.154Z,14.20
2023-04-23T07:11:37.079Z,14.20
2023-04-23T07:14:05.332Z,14.20
2023-04-23T07:16:33.970Z,14.30
2023-04-23T07:19:02.417Z,14.40
2023-04-23T07:21:30.509Z,14.60
2023-04-23T07:24:03.317Z,14.70
2023-04-23T07:26:31.219Z,14.80
2023-04-23T07:28:59.520Z,14.90
2023-04-23T07:31:29.080Z,15.00
2023-04-23T07:33:57.143Z,15.00
2023-04-23T07:36:25.140Z,15.10
2023-04-23T07:38:53.021Z,15.30
2023-04-23T07:41:22.424Z,15.30
2023-04-23T07:43:50.906Z,15.20
2023-04-23T07:46:19.978Z,15.20
2023-04-23T07:48:48.150Z,15.20
2023-04-23T07:51:16.049Z,15.30
2023-04-23T07:53:44.055Z,15.30
2023-04-23T07:56:12.115Z,15.60
2023-04-23T07:58:41.368Z,15.70
2023-04-23T08:01:09.612Z,15.80
2023-04-23T08:03:37.767Z,15.70
2023-04-23T08:06:06.411Z,15.90
2023-04-23T08:08:34.278Z,16.30
2023-04-23T08:11:02.774Z,16.60
2023-04-23T08:13:30.613Z,16.80
2023-04-23T08:16:00.710Z,17.10
2023-04-23T08:18:28.679Z,17.10
2023-04-23T08:20:57.497Z,17.20
2023-04-23T08:23:28.175Z,17.10
2023-04-23T08:25:56.040Z,17.20
2023-04-23T08:28:23.893Z,17.70
2023-04-23T08:30:52.050Z,17.90
2023-04-23T08:33:21.346Z,18.10
2023-04-23T08:35:49.322Z,18.20
2023-04-23T08:38:17.218Z,18.20
2023-04-23T08:40:46.934Z,17.90
2023-04-23T08:43:20.414Z,17.80
2023-04-23T08:45:49.983Z,17.90
2023-04-23T08:48:19.081Z,17.90
2023-04-23T08:50:49.355Z,17.70
2023-04-23T08:53:20.357Z,17.70
2023-04-23T08:55:51.522Z,17.90
2023-04-23T08:58:21.171Z,18.00
2023-04-23T09:00:50.302Z,18.10
2023-04-23T09:03:19.053Z,18.10
2023-04-23T09:05:48.578Z,18.20
2023-04-23T09:08:16.618Z,18.10
2023-04-23T09:10:46.079Z,18.20
2023-04-23T09:13:14.132Z,18.10
2023-04-23T09:15:43.650Z,17.80
2023-04-23T09:18:12.082Z,17.70
2023-04-23T09:20:41.062Z,17.60
2023-04-23T09:23:10.668Z,17.70
2023-04-23T09:25:38.599Z,17.40
2023-04-23T09:28:09.122Z,17.30
2023-04-23T09:30:42.305Z,17.10
2023-04-23T09:33:12.769Z,17.00
2023-04-23T09:35:42.201Z,16.90
2023-04-23T09:38:11.485Z,16.80
2023-04-23T09:40:39.344Z,16.90
2023-04-23T09:43:08.277Z,17.00
2023-04-23T09:45:36.307Z,16.90
2023-04-23T09:48:04.400Z,16.80
2023-04-23T09:50:37.011Z,16.80
2023-04-23T09:53:05.200Z,16.90
2023-04-23T09:55:38.938Z,16.90
2023-04-23T09:58:08.335Z,17.00
2023-04-23T10:00:38.039Z,17.30
2023-04-23T10:03:07.850Z,17.50
2023-04-23T10:05:56.288Z,17.70
2023-04-23T10:08:28.866Z,17.70
2023-04-23T10:11:13.621Z,17.80
2023-04-23T10:13:46.527Z,18.10
2023-04-23T10:16:22.406Z,18.20
2023-04-23T10:18:55.204Z,18.10
2023-04-23T10:21:26.775Z,17.90
2023-04-23T10:23:55.599Z,18.10
2023-04-23T10:26:26.868Z,18.20
2023-04-23T10:28:56.312Z,18.30
2023-04-23T10:31:25.544Z,18.40
2023-04-23T10:33:58.844Z,18.20
2023-04-23T10:36:29.089Z,17.90
2023-04-23T10:39:00.653Z,17.80
2023-04-23T10:41:36.895Z,17.70
2023-04-23T10:44:05.793Z,17.50
2023-04-23T10:46:38.669Z,17.50
2023-04-23T10:49:08.954Z,17.70
2023-04-23T10:54:09.929Z,17.90
2023-04-23T10:56:40.941Z,17.90
2023-04-23T10:59:09.678Z,18.00
2023-04-23T11:01:37.604Z,18.10
2023-04-23T11:04:25.229Z,18.10
2023-04-23T11:06:58.389Z,18.20
2023-04-23T11:09:30.512Z,18.20
2023-04-23T11:12:01.410Z,18.10
2023-04-23T11:14:42.577Z,18.00
2023-04-23T11:17:13.249Z,17.90
2023-04-23T11:19:42.552Z,18.00
2023-04-23T11:22:16.717Z,18.10
2023-04-23T11:24:48.795Z,18.20
2023-04-23T11:27:20.389Z,18.20
2023-04-23T11:29:48.403Z,18.30
2023-04-23T11:32:18.050Z,18.50
2023-04-23T11:34:47.639Z,18.70
2023-04-23T11:37:17.066Z,18.60
2023-04-23T11:39:47.341Z,18.40
2023-04-23T11:42:15.928Z,18.30
2023-04-23T11:44:46.436Z,18.20
2023-04-23T11:47:16.245Z,18.10
2023-04-23T11:49:45.501Z,18.10
2023-04-23T11:52:15.413Z,18.20
2023-04-23T11:54:43.578Z,18.50
2023-04-23T11:57:11.918Z,18.80
2023-04-23T11:59:39.911Z,19.10
2023-04-23T12:02:09.437Z,19.30
2023-04-23T12:04:40.345Z,19.00
2023-04-23T12:07:19.702Z,19.20
2023-04-23T12:09:54.050Z,19.50
2023-04-23T12:12:22.009Z,19.70
2023-04-23T12:14:49.919Z,19.90
2023-04-23T12:17:19.131Z,20.30
2023-04-23T12:19:47.073Z,20.20
2023-04-23T12:22:15.017Z,20.10
2023-04-23T12:24:51.335Z,20.20
2023-04-23T12:27:22.102Z,20.40
2023-04-23T12:29:50.843Z,20.30
2023-04-23T12:32:22.992Z,20.20
2023-04-23T12:34:54.628Z,20.30
2023-04-23T12:37:26.492Z,20.50
2023-04-23T12:39:56.389Z,20.40
2023-04-23T12:42:24.322Z,20.50
2023-04-23T12:44:52.519Z,20.50
2023-04-23T12:47:21.763Z,20.40
2023-04-23T12:49:54.254Z,20.60
2023-04-23T12:52:22.449Z,20.60
2023-04-23T12:54:52.234Z,20.40
2023-04-23T12:57:23.263Z,20.40
2023-04-23T12:59:51.493Z,20.20
2023-04-23T13:02:20.861Z,20.30
2023-04-23T13:04:48.737Z,20.30
2023-04-23T13:07:16.729Z,20.20
2023-04-23T13:09:44.814Z,20.20
2023-04-23T13:12:12.983Z,20.00
2023-04-23T13:14:40.931Z,19.70
2023-04-23T13:17:08.887Z,19.70
2023-04-23T13:19:39.732Z,19.80
2023-04-23T13:22:07.844Z,19.70
2023-04-23T13:24:36.046Z,19.80
2023-04-23T13:27:03.989Z,19.80
2023-04-23T13:29:31.845Z,19.70
2023-04-23T13:31:59.802Z,19.80
2023-04-23T13:34:27.789Z,20.10
2023-04-23T13:36:57.063Z,20.40
2023-04-23T13:39:25.316Z,20.70
2023-04-23T13:44:27.307Z,20.90
2023-04-23T13:46:57.064Z,20.80
2023-04-23T13:49:25.052Z,20.70
2023-04-23T13:51:54.171Z,20.60
2023-04-23T13:54:23.457Z,20.40
2023-04-23T13:56:51.326Z,20.40
2023-04-23T13:59:20.315Z,20.50
2023-04-23T14:01:49.837Z,20.70
2023-04-23T14:04:18.554Z,20.60
2023-04-23T14:06:46.630Z,20.50
2023-04-23T14:09:14.681Z,20.30
2023-04-23T14:11:44.301Z,20.20
2023-04-23T14:14:12.271Z,20.10
2023-04-23T14:16:40.273Z,20.00
2023-04-23T14:19:08.155Z,20.00
2023-04-23T14:21:36.374Z,20.10
2023-04-23T14:24:10.395Z,20.00
2023-04-23T14:26:48.654Z,19.90
2023-04-23T14:29:30.048Z,19.70
2023-04-23T14:31:57.946Z,19.50
2023-04-23T14:34:25.919Z,19.50
2023-04-23T14:36:54.302Z,19.50
2023-04-23T14:39:23.522Z,19.40
2023-04-23T14:41:51.457Z,19.40
2023-04-23T14:44:19.750Z,19.30
2023-04-23T14:46:51.032Z,19.20
2023-04-23T14:49:20.931Z,19.10
2023-04-23T14:51:50.656Z,19.10
2023-04-23T14:54:18.577Z,19.20
2023-04-23T14:56:46.550Z,19.20
2023-04-23T14:59:15.006Z,19.20
2023-04-23T15:01:42.920Z,19.20
2023-04-23T15:04:12.961Z,19.20
2023-04-23T15:06:41.455Z,19.20
2023-04-23T15:09:09.347Z,19.20
2023-04-23T15:11:37.915Z,19.20
2023-04-23T15:14:09.783Z,19.20
2023-04-23T15:19:17.618Z,19.10
2023-04-23T15:21:46.105Z,19.00
2023-04-23T15:24:14.179Z,19.00
2023-04-23T15:26:42.309Z,19.00
2023-04-23T15:29:10.513Z,19.00
2023-04-23T15:31:39.021Z,18.80
2023-04-23T15:34:08.607Z,18.60
2023-04-23T15:36:38.844Z,18.20
2023-04-23T15:39:07.498Z,17.90
2023-04-23T15:41:39.324Z,17.60
2023-04-23T15:44:11.655Z,17.40
2023-04-23T15:46:39.709Z,17.40
2023-04-23T15:49:07.588Z,17.30
2023-04-23T15:51:35.577Z,17.30
2023-04-23T15:54:08.007Z,17.30
2023-04-23T15:56:36.484Z,17.20
2023-04-23T15:59:04.380Z,17.10
2023-04-23T16:01:32.351Z,17.10
2023-04-23T16:04:09.308Z,17.10
2023-04-23T16:06:37.977Z,17.00
2023-04-23T16:09:08.021Z,16.70
2023-04-23T16:11:36.443Z,16.60
2023-04-23T16:14:05.217Z,16.40
2023-04-23T16:16:33.249Z,16.30
2023-04-23T16:19:01.923Z,16.00
2023-04-23T16:21:29.862Z,15.80
2023-04-23T16:23:58.061Z,15.70
2023-04-23T16:26:28.511Z,15.60
2023-04-23T16:29:16.640Z,15.60
2023-04-23T16:31:44.279Z,15.70
2023-04-23T16:34:12.144Z,15.60
2023-04-23T16:36:40.070Z,15.70
2023-04-23T16:39:07.880Z,15.70
2023-04-23T16:41:37.014Z,15.70
2023-04-23T16:44:05.032Z,15.80
2023-04-23T16:46:33.175Z,15.70
2023-04-23T16:49:01.086Z,15.60
2023-04-23T16:51:29.695Z,15.70
2023-04-23T16:53:58.135Z,15.70
2023-04-23T16:56:26.136Z,15.50
2023-04-23T16:58:55.438Z,15.60
2023-04-23T17:01:23.637Z,15.60
2023-04-23T17:03:51.780Z,15.60
2023-04-23T17:06:26.729Z,15.60
2023-04-23T17:08:55.245Z,15.70
2023-04-23T17:11:24.497Z,15.70
2023-04-23T17:13:52.389Z,15.80
2023-04-23T17:16:22.126Z,15.70
2023-04-23T17:18:50.055Z,15.70
2023-04-23T17:21:18.970Z,15.70
2023-04-23T17:23:46.900Z,15.80
2023-04-23T17:26:14.909Z,15.80
2023-04-23T17:28:42.912Z,15.80
2023-04-23T17:31:11.260Z,15.80
2023-04-23T17:33:43.382Z,15.80
2023-04-23T17:36:11.506Z,15.80
2023-04-23T17:38:39.394Z,15.80
2023-04-23T17:41:07.340Z,15.80
2023-04-23T17:43:36.556Z,15.80
2023-04-23T17:46:04.615Z,15.90
2023-04-23T17:48:32.649Z,15.80
2023-04-23T17:51:02.112Z,15.80
2023-04-23T17:53:30.778Z,15.70
2023-04-23T17:56:02.799Z,15.70
2023-04-23T17:58:31.652Z,15.60
2023-04-23T18:00:59.705Z,15.60
2023-04-23T18:03:29.846Z,15.60
2023-04-23T18:05:58.217Z,15.60
2023-04-23T18:08:27.593Z,15.50
2023-04-23T18:10:55.669Z,15.40
2023-04-23T18:13:23.684Z,15.40
2023-04-23T18:15:51.890Z,15.30
2023-04-23T18:18:21.655Z,15.30
2023-04-23T18:20:52.213Z,15.30
2023-04-23T18:23:21.930Z,15.30
2023-04-23T18:25:51.235Z,15.30
2023-04-23T18:28:19.159Z,15.20
2023-04-23T18:30:47.590Z,15.10
2023-04-23T18:33:32.788Z,15.00
2023-04-23T18:36:05.588Z,15.00
2023-04-23T18:38:44.728Z,15.00
2023-04-23T18:41:14.027Z,15.00
2023-04-23T18:43:42.070Z,15.00
2023-04-23T18:46:10.253Z,15.00
2023-04-23T18:48:45.768Z,14.90
2023-04-23T18:51:22.947Z,15.00
2023-04-23T18:53:51.057Z,14.90
2023-04-23T18:56:20.285Z,14.90
2023-04-23T18:58:48.423Z,14.90
2023-04-23T19:01:16.391Z,14.90
2023-04-23T19:03:44.391Z,14.90
2023-04-23T19:06:12.389Z,14.90
2023-04-23T19:08:42.305Z,14.90
2023-04-23T19:11:10.199Z,14.90
2023-04-23T19:13:39.476Z,14.80
2023-04-23T19:16:08.891Z,14.80
2023-04-23T19:18:37.259Z,14.80
2023-04-23T19:21:05.506Z,14.80
2023-04-23T19:23:33.390Z,14.80
2023-04-23T19:26:01.739Z,14.70
2023-04-23T19:28:29.828Z,14.70
2023-04-23T19:30:59.559Z,14.70
2023-04-23T19:33:27.538Z,14.70
2023-04-23T19:35:55.398Z,14.70
2023-04-23T19:38:23.301Z,14.70
2023-04-23T19:40:51.471Z,14.70
2023-04-23T19:43:19.968Z,14.70
2023-04-23T19:45:47.813Z,14.70
2023-04-23T19:48:17.150Z,14.60
2023-04-23T19:50:45.149Z,14.60
2023-04-23T19:53:13.016Z,14.60
2023-04-23T19:55:41.065Z,14.60
2023-04-23T19:58:08.931Z,14.50
2023-04-23T20:00:40.341Z,14.40
2023-04-23T20:03:09.543Z,14.40
2023-04-23T20:05:38.929Z,14.40
2023-04-23T20:08:14.548Z,14.40
2023-04-23T20:10:42.612Z,14.30
2023-04-23T20:13:10.487Z,14.30
2023-04-23T20:15:38.374Z,14.30
2023-04-23T20:18:06.886Z,14.30
2023-04-23T20:20:35.710Z,14.30
2023-04-23T20:23:05.007Z,14.20
2023-04-23T20:25:33.397Z,14.20
2023-04-23T20:28:01.369Z,14.20
2023-04-23T20:30:29.366Z,14.20
2023-04-23T20:32:57.776Z,14.10
2023-04-23T20:35:25.936Z,14.10
2023-04-23T20:37:54.441Z,14.10
2023-04-23T20:40:25.104Z,14.10
2023-04-23T20:42:54.430Z,14.00
2023-04-23T20:45:22.413Z,14.00
2023-04-23T20:47:51.371Z,14.00
2023-04-23T20:50:19.309Z,14.00
2023-04-23T20:52:47.269Z,13.90
2023-04-23T20:55:15.308Z,13.90
2023-04-23T20:57:44.556Z,13.90
2023-04-23T21:00:14.314Z,13.90
2023-04-23T21:02:42.454Z,13.80
2023-04-23T21:05:13.082Z,13.80
2023-04-23T21:07:41.141Z,13.70
2023-04-23T21:10:09.537Z,13.70
2023-04-23T21:12:37.545Z,13.60
2023-04-23T21:15:08.297Z,13.60
2023-04-23T21:17:36.175Z,13.50
2023-04-23T21:20:05.599Z,13.40
2023-04-23T21:22:33.521Z,13.40
2023-04-23T21:25:01.399Z,13.30
2023-04-23T21:27:31.395Z,13.30
2023-04-23T21:30:04.695Z,13.30
2023-04-23T21:32:34.585Z,13.20
2023-04-23T21:35:02.511Z,13.20
2023-04-23T21:37:30.631Z,13.20
2023-04-23T21:39:58.479Z,13.10
2023-04-23T21:42:26.595Z,13.00
2023-04-23T21:44:54.645Z,12.90
2023-04-23T21:47:22.544Z,12.90
2023-04-23T21:49:51.822Z,12.90
2023-04-23T21:52:20.199Z,12.90
2023-04-23T21:54:48.084Z,12.80
2023-04-23T21:57:16.047Z,12.80
2023-04-23T21:59:44.070Z,12.70
2023-04-23T22:02:12.192Z,12.70
2023-04-23T22:04:40.382Z,12.70
2023-04-23T22:07:12.453Z,12.60
2023-04-23T22:09:41.677Z,12.60
2023-04-23T22:12:09.932Z,12.60
2023-04-23T22:14:37.788Z,12.50
2023-04-23T22:17:07.513Z,12.40
2023-04-23T22:19:35.499Z,12.40
2023-04-23T22:22:03.314Z,12.30
2023-04-23T22:24:32.602Z,12.30
2023-04-23T22:27:00.485Z,12.30
2023-04-23T22:29:28.383Z,12.30
2023-04-23T22:31:56.233Z,12.20
2023-04-23T22:34:25.491Z,12.20
2023-04-23T22:36:53.671Z,12.10
2023-04-23T22:39:21.816Z,12.10
2023-04-23T22:41:51.039Z,12.10
2023-04-23T22:44:18.866Z,12.00
2023-04-23T22:46:46.881Z,12.00
2023-04-23T22:49:14.684Z,11.90
2023-04-23T22:51:42.516Z,11.90
2023-04-23T22:54:10.424Z,11.90
2023-04-23T22:56:38.387Z,11.90
2023-04-23T22:59:07.956Z,11.80
2023-04-23T23:01:35.820Z,11.80
2023-04-23T23:04:03.692Z,11.80
2023-04-23T23:06:32.028Z,11.70
2023-04-23T23:08:59.973Z,11.70
2023-04-23T23:11:28.747Z,11.70
2023-04-23T23:13:57.248Z,11.60
2023-04-23T23:16:26.662Z,11.60
2023-04-23T23:18:54.680Z,11.50
2023-04-23T23:21:22.595Z,11.60
2023-04-23T23:23:50.486Z,11.50
2023-04-23T23:26:18.795Z,11.50
2023-04-23T23:28:46.892Z,11.50
2023-04-23T23:31:14.805Z,11.40
2023-04-23T23:33:44.077Z,11.40
2023-04-23T23:36:12.013Z,11.30
2023-04-23T23:38:39.876Z,11.30
2023-04-23T23:41:07.740Z,11.30
2023-04-23T23:43:35.657Z,11.30
2023-04-23T23:46:03.789Z,11.20
2023-04-23T23:48:31.772Z,11.30
2023-04-23T23:51:01.093Z,11.30
2023-04-23T23:53:28.953Z,11.40
2023-04-23T23:55:56.827Z,11.30
2023-04-23T23:58:24.772Z,11.30
